Time;durP1;ratioP1;P1;durP2;ratioP2;P2;SDS_P1;SDS_P2;PMS_P1;PMS_P2;Temp;Humidity;BMP_temperature;BMP_pressure;BME280_temperature;BME280_humidity;BME280_pressure;Samples;Min_cycle;Max_cycle;Signal;HPM_P1;HPM_P2
2024/04/02 00:00:36;;;;;;;0.40;0.40;;;6.10;99.90;;;;;;2031484;29;20221;-68
2024/04/02 00:01:36;;;;;;;0.30;0.30;;;6.20;99.90;;;;;;2031443;29;20240;-68
2024/04/02 00:02:37;;;;;;;0.43;0.43;;;6.20;99.90;;;;;;2031470;29;20227;-68
2024/04/02 00:03:37;;;;;;;0.40;0.40;;;6.20;99.90;;;;;;2031645;29;20221;-68
2024/04/02 00:04:38;;;;;;;0.60;0.40;;;6.10;99.90;;;;;;2037849;29;20228;-68
2024/04/02 00:05:40;;;;;;;0.40;0.40;;;6.10;99.90;;;;;;2030432;29;20776;-68
2024/04/02 00:06:41;;;;;;;0.30;0.30;;;6.10;99.90;;;;;;2022926;29;20230;-68
2024/04/02 00:07:41;;;;;;;0.73;0.40;;;6.10;99.90;;;;;;2030852;29;20228;-68
2024/04/02 00:08:42;;;;;;;0.37;0.37;;;6.10;99.90;;;;;;2031226;29;20221;-68
2024/04/02 00:09:43;;;;;;;0.40;0.40;;;6.10;99.90;;;;;;2031636;29;20226;-69
2024/04/02 00:10:43;;;;;;;0.70;0.40;;;6.10;99.90;;;;;;2031454;29;20227;-68
2024/04/02 00:11:44;;;;;;;0.37;0.37;;;6.10;99.90;;;;;;2031437;29;20307;-68
2024/04/02 00:12:45;;;;;;;0.40;0.40;;;6.10;99.90;;;;;;2031902;29;20220;-68
2024/04/02 00:13:46;;;;;;;0.73;0.40;;;6.00;99.90;;;;;;2032204;29;20245;-69
2024/04/02 00:14:46;;;;;;;0.30;0.30;;;6.00;99.90;;;;;;2030925;29;20259;-67
2024/04/02 00:15:48;;;;;;;0.40;0.40;;;6.00;99.90;;;;;;2032034;29;20736;-68
2024/04/02 00:16:48;;;;;;;0.40;0.35;;;5.90;99.90;;;;;;2031193;29;20220;-68
2024/04/02 00:17:49;;;;;;;0.30;0.30;;;5.90;99.90;;;;;;2031284;29;20666;-68
2024/04/02 00:18:50;;;;;;;0.40;0.40;;;5.90;99.90;;;;;;2031207;29;20323;-68
2024/04/02 00:19:50;;;;;;;0.33;0.33;;;5.80;99.90;;;;;;2030710;29;20656;-68
2024/04/02 00:20:52;;;;;;;0.40;0.40;;;5.80;99.90;;;;;;2031345;29;20299;-68
2024/04/02 00:21:52;;;;;;;1.42;0.45;;;5.80;99.90;;;;;;2028822;29;20237;-68
2024/04/02 00:22:53;;;;;;;0.57;0.30;;;5.70;99.90;;;;;;2028053;29;20221;-68
2024/04/02 00:23:53;;;;;;;0.90;0.40;;;5.70;99.90;;;;;;2032312;29;20262;-68
2024/04/02 00:24:54;;;;;;;0.40;0.40;;;5.70;99.90;;;;;;2031085;29;20722;-68
2024/04/02 00:26:01;;;;;;;0.40;0.40;;;5.70;99.90;;;;;;2031152;29;20225;-68
2024/04/02 00:27:02;;;;;;;0.35;0.35;;;5.70;99.90;;;;;;2020962;29;20621;-67
2024/04/02 00:28:03;;;;;;;1.30;0.47;;;5.70;99.90;;;;;;2022921;29;20193;-68
2024/04/02 00:29:04;;;;;;;0.20;0.20;;;5.70;99.90;;;;;;2030440;29;20244;-68
2024/04/02 00:30:05;;;;;;;0.30;0.30;;;5.70;99.90;;;;;;2030431;29;20299;-67
2024/04/02 00:31:06;;;;;;;0.77;0.50;;;5.70;99.90;;;;;;2038360;29;20216;-68
2024/04/02 00:32:07;;;;;;;0.30;0.30;;;5.70;99.90;;;;;;2038506;29;20368;-68
2024/04/02 00:33:07;;;;;;;0.40;0.40;;;5.70;99.90;;;;;;2030843;29;20193;-69
2024/04/02 00:34:08;;;;;;;0.50;0.43;;;5.70;99.90;;;;;;2030975;29;20211;-68
2024/04/02 00:35:08;;;;;;;0.43;0.43;;;5.70;99.90;;;;;;2031293;29;20208;-69
2024/04/02 00:36:09;;;;;;;2.70;0.60;;;5.70;99.90;;;;;;2031142;29;20992;-68
2024/04/02 00:37:10;;;;;;;0.30;0.30;;;5.70;99.90;;;;;;2031341;29;20264;-69
2024/04/02 00:38:10;;;;;;;0.77;0.43;;;5.70;99.90;;;;;;2031265;29;20720;-69
2024/04/02 00:39:11;;;;;;;0.50;0.40;;;5.70;99.90;;;;;;2030843;29;20185;-69
2024/04/02 00:40:11;;;;;;;0.50;0.50;;;5.70;99.90;;;;;;2031299;29;20185;-68
2024/04/02 00:41:12;;;;;;;0.47;0.40;;;5.80;99.90;;;;;;2031262;29;20209;-68
2024/04/02 00:42:13;;;;;;;0.40;0.40;;;5.70;99.90;;;;;;2031216;29;20601;-69
2024/04/02 00:43:13;;;;;;;0.33;0.33;;;5.70;99.90;;;;;;2031302;29;20638;-68
2024/04/02 00:44:14;;;;;;;0.30;0.30;;;5.70;99.90;;;;;;2030713;29;20193;-68
2024/04/02 00:45:14;;;;;;;0.90;0.40;;;5.80;99.90;;;;;;2030448;29;20216;-68
2024/04/02 00:46:15;;;;;;;0.43;0.30;;;5.70;99.90;;;;;;2030138;29;20716;-68
2024/04/02 00:47:16;;;;;;;0.20;0.20;;;5.80;99.90;;;;;;2031178;29;20205;-68
2024/04/02 00:48:17;;;;;;;0.33;0.33;;;5.80;99.90;;;;;;2031262;29;20193;-68
2024/04/02 00:49:18;;;;;;;0.30;0.30;;;5.70;99.90;;;;;;2022715;29;20588;-69
2024/04/02 00:50:18;;;;;;;0.40;0.40;;;5.70;99.90;;;;;;2022969;29;20242;-68
2024/04/02 00:51:19;;;;;;;0.20;0.20;;;5.70;99.90;;;;;;2031296;29;20296;-68
2024/04/02 00:52:20;;;;;;;0.47;0.40;;;5.70;99.90;;;;;;2030492;29;20241;-68
2024/04/02 00:53:21;;;;;;;0.43;0.30;;;5.70;99.90;;;;;;2030701;29;20761;-69
2024/04/02 00:54:22;;;;;;;0.82;0.40;;;5.70;99.90;;;;;;2031288;29;20297;-69
2024/04/02 00:55:22;;;;;;;0.37;0.30;;;5.70;99.90;;;;;;2030471;29;20849;-69
2024/04/02 00:56:23;;;;;;;0.37;0.37;;;5.70;99.90;;;;;;2039166;29;20325;-69
2024/04/02 00:57:23;;;;;;;0.30;0.30;;;5.70;99.90;;;;;;2038410;29;20255;-68
2024/04/02 00:58:26;;;;;;;0.30;0.30;;;5.80;99.90;;;;;;2031242;29;20243;-69
2024/04/02 00:59:27;;;;;;;0.45;0.45;;;5.80;99.90;;;;;;2030650;29;20235;-68
2024/04/02 01:00:28;;;;;;;0.30;0.30;;;5.70;99.90;;;;;;2029986;29;20221;-68
2024/04/02 01:01:29;;;;;;;0.43;0.43;;;5.70;99.90;;;;;;2030545;29;20656;-68
2024/04/02 01:02:29;;;;;;;0.30;0.30;;;5.80;99.90;;;;;;2029908;29;20267;-68
2024/04/02 01:03:30;;;;;;;0.30;0.30;;;5.80;99.90;;;;;;2031518;29;20249;-68
2024/04/02 01:04:30;;;;;;;0.87;0.40;;;5.80;99.90;;;;;;2030353;29;20271;-68
2024/04/02 01:05:36;;;;;;;0.40;0.33;;;5.80;99.90;;;;;;2029657;29;20280;-68
2024/04/02 01:06:37;;;;;;;0.55;0.30;;;5.80;99.90;;;;;;2030343;29;20236;-68
2024/04/02 01:07:39;;;;;;;0.50;0.40;;;5.80;99.90;;;;;;2029576;29;20754;-68
2024/04/02 01:08:39;;;;;;;0.30;0.30;;;5.80;99.90;;;;;;2030222;29;21006;-68
2024/04/02 01:09:42;;;;;;;0.40;0.40;;;5.80;99.90;;;;;;2030595;29;20229;-69
2024/04/02 01:10:43;;;;;;;6.13;0.50;;;5.80;99.90;;;;;;2029392;29;20220;-69
2024/04/02 01:11:44;;;;;;;0.40;0.40;;;5.90;99.90;;;;;;2029727;29;20255;-68
2024/04/02 01:12:45;;;;;;;0.55;0.47;;;5.90;99.90;;;;;;2030799;29;20229;-69
2024/04/02 01:13:47;;;;;;;0.30;0.30;;;5.90;99.90;;;;;;2030125;29;20228;-68
2024/04/02 01:14:47;;;;;;;0.40;0.40;;;5.80;99.90;;;;;;2029979;29;20228;-68
2024/04/02 01:15:48;;;;;;;0.43;0.40;;;5.80;99.90;;;;;;2029490;29;20250;-68
2024/04/02 01:16:49;;;;;;;0.40;0.40;;;5.80;99.90;;;;;;2028742;29;20227;-69
2024/04/02 01:17:49;;;;;;;0.30;0.30;;;5.80;99.90;;;;;;2029461;29;20251;-68
2024/04/02 01:18:50;;;;;;;1.10;0.40;;;5.80;99.90;;;;;;2030202;29;20229;-68
2024/04/02 01:19:50;;;;;;;0.67;0.50;;;5.70;99.90;;;;;;2029483;29;20231;-68
2024/04/02 01:20:51;;;;;;;0.30;0.30;;;5.70;99.90;;;;;;2028849;29;20280;-69
2024/04/02 01:21:52;;;;;;;0.30;0.30;;;5.70;99.90;;;;;;2029405;29;20603;-68
2024/04/02 01:22:53;;;;;;;1.13;0.50;;;5.70;99.90;;;;;;2024986;29;20260;-68
2024/04/02 01:23:53;;;;;;;0.53;0.50;;;5.70;99.90;;;;;;2025127;29;20334;-68
2024/04/02 01:24:58;;;;;;;0.37;0.37;;;5.70;99.90;;;;;;2029849;29;20240;-67
2024/04/02 01:25:59;;;;;;;0.73;0.40;;;5.70;99.90;;;;;;2029594;29;20329;-68
2024/04/02 01:27:02;;;;;;;0.73;0.40;;;5.70;99.90;;;;;;2030242;29;20693;-68
2024/04/02 01:28:03;;;;;;;0.55;0.40;;;5.70;99.90;;;;;;2029197;29;20217;-67
2024/04/02 01:29:03;;;;;;;0.60;0.50;;;5.70;99.90;;;;;;2030179;29;20279;-68
2024/04/02 01:30:04;;;;;;;0.50;0.50;;;5.70;99.90;;;;;;2028359;29;20751;-67
2024/04/02 01:31:05;;;;;;;0.47;0.47;;;5.70;99.90;;;;;;2028880;29;20196;-67
2024/04/02 01:32:06;;;;;;;0.70;0.50;;;5.70;99.90;;;;;;2021185;29;20194;-68
2024/04/02 01:33:06;;;;;;;0.50;0.50;;;5.70;99.90;;;;;;2022011;29;20293;-68
2024/04/02 01:34:07;;;;;;;0.77;0.50;;;5.70;99.90;;;;;;2030106;29;20268;-67
2024/04/02 01:35:08;;;;;;;1.60;0.60;;;5.60;99.90;;;;;;2029434;29;20585;-67
2024/04/02 01:36:08;;;;;;;0.50;0.40;;;5.70;99.90;;;;;;2029772;29;20209;-67
2024/04/02 01:37:09;;;;;;;2.53;0.83;;;5.70;99.90;;;;;;2026892;29;20564;-67
2024/04/02 01:38:10;;;;;;;0.73;0.50;;;5.70;99.90;;;;;;2025287;29;20218;-68
2024/04/02 01:39:10;;;;;;;0.30;0.30;;;5.70;99.90;;;;;;2022296;29;20574;-67
2024/04/02 01:40:11;;;;;;;0.60;0.50;;;5.70;99.90;;;;;;2021368;29;20193;-68
2024/04/02 01:41:12;;;;;;;0.30;0.30;;;5.70;99.90;;;;;;2029549;29;20192;-67
2024/04/02 01:42:12;;;;;;;0.97;0.70;;;5.70;99.90;;;;;;2029810;29;20275;-67
2024/04/02 01:43:13;;;;;;;0.83;0.37;;;5.70;99.90;;;;;;2030914;29;20205;-67
2024/04/02 01:44:14;;;;;;;1.60;0.50;;;5.70;99.90;;;;;;2029218;29;20251;-68
2024/04/02 01:45:14;;;;;;;0.73;0.50;;;5.70;99.90;;;;;;2029361;29;20215;-67
2024/04/02 01:46:15;;;;;;;1.07;0.50;;;5.60;99.90;;;;;;2030087;29;20213;-68
2024/04/02 01:47:16;;;;;;;0.60;0.50;;;5.60;99.90;;;;;;2030029;29;20228;-68
2024/04/02 01:48:16;;;;;;;0.53;0.40;;;5.60;99.90;;;;;;2030999;29;20563;-67
2024/04/02 01:49:17;;;;;;;0.80;0.50;;;5.60;99.90;;;;;;2030066;29;20562;-68
2024/04/02 01:50:18;;;;;;;0.40;0.40;;;5.60;99.90;;;;;;2029609;29;20197;-68
2024/04/02 01:51:19;;;;;;;0.40;0.40;;;5.60;99.90;;;;;;2029805;29;20277;-68
2024/04/02 01:52:19;;;;;;;0.40;0.40;;;5.70;99.90;;;;;;2030452;29;20197;-68
2024/04/02 01:53:20;;;;;;;0.33;0.33;;;5.60;99.90;;;;;;2029567;29;20271;-67
2024/04/02 01:54:21;;;;;;;0.70;0.70;;;5.60;99.90;;;;;;2030091;29;20244;-67
2024/04/02 01:55:21;;;;;;;0.40;0.40;;;5.60;99.90;;;;;;2029472;29;20244;-68
2024/04/02 01:56:22;;;;;;;1.27;0.43;;;5.70;99.90;;;;;;2032458;29;20327;-67
2024/04/02 01:57:23;;;;;;;0.80;0.40;;;5.60;99.90;;;;;;2031162;29;20675;-68
2024/04/02 01:58:23;;;;;;;0.43;0.43;;;5.60;99.90;;;;;;2030665;29;20244;-68
2024/04/02 01:59:24;;;;;;;0.40;0.40;;;5.70;99.90;;;;;;2028969;29;20232;-68
2024/04/02 02:00:25;;;;;;;0.47;0.40;;;5.70;99.90;;;;;;2029192;29;20319;-69
2024/04/02 02:01:26;;;;;;;0.40;0.40;;;5.70;99.90;;;;;;2029562;29;20229;-68
2024/04/02 02:02:26;;;;;;;0.50;0.50;;;5.70;99.90;;;;;;2029478;29;20229;-67
2024/04/02 02:03:27;;;;;;;0.40;0.40;;;5.70;99.90;;;;;;2028670;29;20240;-67
2024/04/02 02:04:27;;;;;;;0.30;0.30;;;5.70;99.90;;;;;;2030644;29;20260;-68
2024/04/02 02:05:28;;;;;;;0.40;0.40;;;5.70;99.90;;;;;;2029089;29;20241;-68
2024/04/02 02:06:28;;;;;;;0.40;0.40;;;5.70;99.90;;;;;;2029803;29;20450;-69
2024/04/02 02:07:29;;;;;;;0.70;0.60;;;5.80;99.90;;;;;;2029896;29;20232;-68
2024/04/02 02:08:30;;;;;;;0.97;0.50;;;5.80;99.90;;;;;;2029879;29;20279;-69
2024/04/02 02:09:30;;;;;;;0.40;0.40;;;5.80;99.90;;;;;;2029773;29;20240;-68
2024/04/02 02:10:33;;;;;;;0.93;0.50;;;5.80;99.90;;;;;;2029341;29;20236;-69
2024/04/02 02:11:33;;;;;;;0.80;0.40;;;5.80;99.90;;;;;;2029507;29;20253;-68
2024/04/02 02:12:34;;;;;;;1.33;0.43;;;5.80;99.90;;;;;;2030792;29;20604;-68
2024/04/02 02:13:35;;;;;;;0.40;0.40;;;5.80;99.90;;;;;;2029647;29;20284;-69
2024/04/02 02:14:36;;;;;;;0.47;0.40;;;5.80;99.90;;;;;;2030034;29;20281;-69
2024/04/02 02:15:37;;;;;;;0.67;0.53;;;5.70;99.90;;;;;;2025209;29;20220;-68
2024/04/02 02:16:37;;;;;;;0.40;0.40;;;5.70;99.90;;;;;;2029489;29;20217;-68
2024/04/02 02:17:38;;;;;;;0.40;0.40;;;5.70;99.90;;;;;;2029547;29;20227;-69
2024/04/02 02:18:39;;;;;;;0.40;0.40;;;5.70;99.90;;;;;;2029473;29;20239;-68
2024/04/02 02:19:39;;;;;;;0.40;0.40;;;5.70;99.90;;;;;;2028740;29;20863;-68
2024/04/02 02:20:40;;;;;;;0.43;0.43;;;5.60;99.90;;;;;;2029338;29;20225;-69
2024/04/02 02:21:40;;;;;;;2.53;0.90;;;5.60;99.90;;;;;;2030799;29;20320;-68
2024/04/02 02:22:41;;;;;;;0.40;0.40;;;5.70;99.90;;;;;;2021055;29;20781;-68
2024/04/02 02:23:45;;;;;;;0.40;0.40;;;5.70;99.90;;;;;;2021312;29;20647;-68
2024/04/02 02:24:46;;;;;;;0.82;0.75;;;5.70;99.90;;;;;;2028884;29;20722;-68
2024/04/02 02:25:46;;;;;;;0.50;0.37;;;5.70;99.90;;;;;;2029566;29;20212;-68
2024/04/02 02:26:47;;;;;;;0.40;0.40;;;5.70;99.90;;;;;;2029688;29;20227;-68
2024/04/02 02:27:47;;;;;;;0.43;0.43;;;5.70;99.90;;;;;;2029763;29;20271;-68
2024/04/02 02:28:48;;;;;;;1.63;0.40;;;5.60;99.90;;;;;;2029597;29;20256;-68
2024/04/02 02:29:48;;;;;;;1.30;0.50;;;5.60;99.90;;;;;;2027088;29;20289;-68
2024/04/02 02:30:49;;;;;;;0.50;0.50;;;5.60;99.90;;;;;;2026342;29;20768;-67
2024/04/02 02:31:50;;;;;;;1.23;0.57;;;5.60;99.90;;;;;;2030853;29;20220;-67
2024/04/02 02:32:51;;;;;;;0.50;0.50;;;5.50;99.90;;;;;;2030873;29;20233;-68
2024/04/02 02:33:51;;;;;;;0.50;0.50;;;5.50;99.90;;;;;;2030925;29;20724;-68
2024/04/02 02:34:52;;;;;;;0.80;0.80;;;5.60;99.90;;;;;;2023562;29;20240;-68
2024/04/02 02:35:53;;;;;;;0.67;0.60;;;5.60;99.90;;;;;;2022919;29;20780;-68
2024/04/02 02:36:54;;;;;;;1.15;0.60;;;5.60;99.90;;;;;;2030826;29;20231;-68
2024/04/02 02:37:54;;;;;;;1.33;0.60;;;5.60;99.90;;;;;;2031251;29;20216;-69
2024/04/02 02:38:55;;;;;;;0.40;0.40;;;5.60;99.90;;;;;;2031981;29;20228;-68
2024/04/02 02:39:56;;;;;;;0.60;0.60;;;5.60;99.90;;;;;;2031772;29;20251;-68
2024/04/02 02:41:01;;;;;;;0.50;0.50;;;5.70;99.90;;;;;;2031929;29;20708;-68
2024/04/02 02:42:04;;;;;;;0.85;0.50;;;5.70;99.90;;;;;;2028105;29;20224;-67
2024/04/02 02:43:04;;;;;;;1.85;0.82;;;5.60;99.90;;;;;;2030947;29;20697;-68
2024/04/02 02:44:05;;;;;;;0.50;0.50;;;5.60;99.90;;;;;;2030493;29;20177;-68
2024/04/02 02:45:06;;;;;;;0.68;0.50;;;5.60;99.90;;;;;;2031358;29;20185;-68
2024/04/02 02:46:07;;;;;;;0.53;0.50;;;5.50;99.90;;;;;;2032184;29;20292;-67
2024/04/02 02:47:07;;;;;;;0.93;0.60;;;5.50;99.90;;;;;;2030863;29;20260;-67
2024/04/02 02:48:08;;;;;;;0.33;0.33;;;5.50;99.90;;;;;;2031157;29;20260;-68
2024/04/02 02:49:09;;;;;;;2.10;0.77;;;5.50;99.90;;;;;;2031015;29;20189;-68
2024/04/02 02:50:09;;;;;;;0.93;0.53;;;5.50;99.90;;;;;;2031022;29;20185;-68
2024/04/02 02:51:10;;;;;;;0.83;0.70;;;5.60;99.90;;;;;;2031745;29;20193;-68
2024/04/02 02:52:11;;;;;;;0.40;0.40;;;5.50;99.90;;;;;;2028510;29;20181;-68
2024/04/02 02:53:12;;;;;;;0.40;0.40;;;5.50;99.90;;;;;;2030051;29;20188;-67
2024/04/02 02:54:12;;;;;;;0.77;0.37;;;5.60;99.90;;;;;;2025646;29;20655;-67
2024/04/02 02:55:13;;;;;;;0.57;0.50;;;5.60;99.90;;;;;;2024715;29;20213;-68
2024/04/02 02:56:14;;;;;;;0.33;0.33;;;5.60;99.90;;;;;;2030423;29;20300;-67
2024/04/02 02:57:15;;;;;;;0.40;0.40;;;5.60;99.90;;;;;;2029901;29;20197;-68
2024/04/02 02:58:15;;;;;;;0.50;0.40;;;5.60;99.90;;;;;;2031122;29;20244;-68
2024/04/02 02:59:16;;;;;;;0.77;0.50;;;5.60;99.90;;;;;;2030390;29;20661;-68
2024/04/02 03:00:17;;;;;;;0.30;0.30;;;5.60;99.90;;;;;;2029852;29;20685;-68
2024/04/02 03:01:18;;;;;;;0.60;0.40;;;5.60;99.90;;;;;;2030171;29;20273;-68
2024/04/02 03:02:19;;;;;;;0.50;0.50;;;5.60;99.90;;;;;;2029927;29;20193;-68
2024/04/02 03:03:19;;;;;;;0.40;0.40;;;5.60;99.90;;;;;;2030780;29;20201;-68
2024/04/02 03:04:20;;;;;;;0.30;0.30;;;5.60;99.90;;;;;;2030695;29;20205;-68
2024/04/02 03:05:21;;;;;;;0.53;0.50;;;5.60;99.90;;;;;;2031313;29;20287;-68
2024/04/02 03:06:21;;;;;;;1.40;0.50;;;5.50;99.90;;;;;;2031416;29;20300;-68
2024/04/02 03:07:22;;;;;;;0.40;0.40;;;5.50;99.90;;;;;;2029907;29;20220;-68
2024/04/02 03:08:23;;;;;;;0.30;0.30;;;5.50;99.90;;;;;;2029982;29;20239;-68
2024/04/02 03:09:24;;;;;;;0.47;0.47;;;5.50;99.90;;;;;;2029863;29;20235;-68
2024/04/02 03:10:24;;;;;;;1.20;0.40;;;5.50;99.90;;;;;;2030005;29;20256;-68
2024/04/02 03:11:25;;;;;;;0.30;0.30;;;5.50;99.90;;;;;;2030427;29;20321;-69
2024/04/02 03:12:26;;;;;;;0.50;0.50;;;5.60;99.90;;;;;;2028059;29;20255;-69
2024/04/02 03:13:27;;;;;;;0.40;0.40;;;5.60;99.90;;;;;;2030665;29;20482;-69
2024/04/02 03:14:31;;;;;;;0.47;0.40;;;5.60;99.90;;;;;;2031155;29;20233;-68
2024/04/02 03:15:37;;;;;;;1.05;0.45;;;5.60;99.90;;;;;;2026626;29;20788;-69
2024/04/02 03:16:38;;;;;;;0.40;0.40;;;5.60;99.90;;;;;;2030812;29;20229;-69
2024/04/02 03:17:38;;;;;;;0.60;0.50;;;5.60;99.90;;;;;;2030970;29;20233;-69
2024/04/02 03:18:39;;;;;;;0.50;0.50;;;5.60;99.90;;;;;;2029009;29;20228;-69
2024/04/02 03:19:40;;;;;;;1.20;0.60;;;5.60;99.90;;;;;;2030414;29;20229;-69
2024/04/02 03:20:40;;;;;;;0.43;0.40;;;5.60;99.90;;;;;;2030285;29;20320;-68
2024/04/02 03:21:41;;;;;;;0.60;0.50;;;5.60;99.90;;;;;;2029260;29;20224;-69
2024/04/02 03:22:41;;;;;;;0.80;0.40;;;5.50;99.90;;;;;;2030145;29;20228;-68
2024/04/02 03:23:42;;;;;;;0.50;0.40;;;5.50;99.90;;;;;;2032302;29;20312;-68
2024/04/02 03:24:42;;;;;;;0.40;0.40;;;5.50;99.90;;;;;;2029515;29;20587;-69
2024/04/02 03:25:54;;;;;;;0.80;0.50;;;5.50;99.90;;;;;;2028154;29;20224;-69
2024/04/02 03:26:54;;;;;;;0.73;0.35;;;5.50;99.90;;;;;;2027078;29;20221;-69
2024/04/02 03:27:55;;;;;;;0.40;0.40;;;5.50;99.90;;;;;;2029111;29;20654;-69
2024/04/02 03:28:55;;;;;;;0.53;0.40;;;5.60;99.90;;;;;;2027102;29;20225;-69
2024/04/02 03:29:56;;;;;;;0.30;0.30;;;5.60;99.90;;;;;;2032905;29;20220;-69
2024/04/02 03:30:58;;;;;;;0.90;0.50;;;5.60;99.90;;;;;;2036768;29;20704;-69
2024/04/02 03:31:58;;;;;;;1.40;0.60;;;5.60;99.90;;;;;;2022148;29;20221;-69
2024/04/02 03:32:59;;;;;;;1.17;0.40;;;5.70;99.90;;;;;;2021880;29;20229;-69
2024/04/02 03:33:59;;;;;;;0.50;0.50;;;5.70;99.90;;;;;;2031836;29;20240;-69
2024/04/02 03:35:00;;;;;;;0.40;0.40;;;5.60;99.90;;;;;;2030398;29;20358;-69
2024/04/02 03:36:05;;;;;;;0.60;0.53;;;5.70;99.90;;;;;;2029260;29;20225;-69
2024/04/02 03:37:05;;;;;;;2.35;0.40;;;5.70;99.90;;;;;;2030431;29;20677;-69
2024/04/02 03:38:06;;;;;;;1.40;0.50;;;5.70;99.90;;;;;;2029946;29;20184;-69
2024/04/02 03:39:07;;;;;;;2.53;0.60;;;5.70;99.90;;;;;;2030150;29;20558;-69
2024/04/02 03:40:08;;;;;;;0.73;0.50;;;5.70;99.90;;;;;;2028324;29;20189;-70
2024/04/02 03:41:11;;;;;;;0.77;0.60;;;5.70;99.90;;;;;;2029616;29;20183;-70
2024/04/02 03:42:11;;;;;;;0.40;0.40;;;5.70;99.90;;;;;;2031422;29;20185;-69
2024/04/02 03:43:12;;;;;;;1.03;0.57;;;5.70;99.90;;;;;;2025428;29;20193;-69
2024/04/02 03:44:12;;;;;;;0.47;0.47;;;5.70;99.90;;;;;;2025946;29;20190;-69
2024/04/02 03:45:13;;;;;;;0.57;0.57;;;5.70;99.90;;;;;;2030455;29;20639;-69
2024/04/02 03:46:14;;;;;;;0.50;0.50;;;5.70;99.90;;;;;;2026768;29;20245;-69
2024/04/02 03:47:14;;;;;;;1.13;0.60;;;5.70;99.90;;;;;;2030234;29;20193;-68
2024/04/02 03:48:15;;;;;;;1.23;0.50;;;5.70;99.90;;;;;;2030119;29;20193;-70
2024/04/02 03:49:15;;;;;;;0.47;0.47;;;5.70;99.90;;;;;;2030110;29;20189;-68
2024/04/02 03:50:16;;;;;;;0.83;0.50;;;5.70;99.90;;;;;;2028946;29;20197;-69
2024/04/02 03:51:16;;;;;;;0.80;0.50;;;5.70;99.90;;;;;;2030430;29;20189;-69
2024/04/02 03:52:17;;;;;;;1.80;0.50;;;5.70;99.90;;;;;;2030689;29;20189;-68
2024/04/02 03:53:18;;;;;;;1.27;0.60;;;5.70;99.90;;;;;;2030141;29;20192;-68
2024/04/02 03:54:18;;;;;;;2.30;0.60;;;5.70;99.90;;;;;;2031251;29;20189;-68
2024/04/02 03:55:19;;;;;;;0.73;0.40;;;5.70;99.90;;;;;;2030135;29;20228;-68
2024/04/02 03:56:19;;;;;;;1.00;0.50;;;5.60;99.90;;;;;;2029336;29;20430;-69
2024/04/02 03:57:20;;;;;;;0.50;0.50;;;5.60;99.90;;;;;;2030059;29;21223;-68
2024/04/02 03:58:21;;;;;;;1.70;0.70;;;5.60;99.90;;;;;;2032963;29;20237;-68
2024/04/02 03:59:21;;;;;;;0.50;0.50;;;5.60;99.90;;;;;;2037832;29;20266;-68
2024/04/02 04:00:22;;;;;;;0.50;0.40;;;5.60;99.90;;;;;;2029588;29;20233;-68
2024/04/02 04:01:22;;;;;;;1.27;0.70;;;5.60;99.90;;;;;;2030398;29;20254;-68
2024/04/02 04:02:23;;;;;;;1.87;0.60;;;5.80;99.90;;;;;;2029541;29;20224;-68
2024/04/02 04:03:27;;;;;;;0.70;0.60;;;5.70;99.90;;;;;;2030795;29;20232;-69
2024/04/02 04:04:27;;;;;;;0.30;0.30;;;5.70;99.90;;;;;;2030386;29;20229;-68
2024/04/02 04:05:28;;;;;;;0.70;0.50;;;5.70;99.90;;;;;;2030218;29;20315;-68
2024/04/02 04:06:29;;;;;;;1.03;0.50;;;5.70;99.90;;;;;;2031145;29;20229;-70
2024/04/02 04:07:30;;;;;;;0.60;0.50;;;5.80;99.90;;;;;;2029955;29;20221;-68
2024/04/02 04:08:31;;;;;;;0.40;0.40;;;5.80;99.90;;;;;;2029797;29;20277;-69
2024/04/02 04:09:32;;;;;;;0.95;0.50;;;5.70;99.90;;;;;;2030553;29;20228;-68
2024/04/02 04:10:36;;;;;;;2.10;0.90;;;5.70;99.90;;;;;;2029826;29;20619;-68
2024/04/02 04:11:36;;;;;;;0.50;0.40;;;5.60;99.90;;;;;;2030302;29;20228;-69
2024/04/02 04:12:37;;;;;;;1.00;0.60;;;5.50;99.90;;;;;;2030491;29;20220;-69
2024/04/02 04:13:37;;;;;;;1.87;1.10;;;5.40;99.90;;;;;;2030454;29;20312;-69
2024/04/02 04:14:38;;;;;;;0.97;0.80;;;5.40;99.90;;;;;;2031178;29;20222;-69
2024/04/02 04:15:38;;;;;;;0.40;0.40;;;5.40;99.90;;;;;;2030448;29;20252;-69
2024/04/02 04:16:39;;;;;;;1.80;0.90;;;5.40;99.90;;;;;;2029979;29;20221;-70
2024/04/02 04:17:40;;;;;;;1.23;0.40;;;5.40;99.90;;;;;;2031631;29;20249;-69
2024/04/02 04:18:40;;;;;;;1.63;0.57;;;5.40;99.90;;;;;;2030469;29;20307;-68
2024/04/02 04:19:41;;;;;;;0.67;0.50;;;5.30;99.90;;;;;;2029522;29;20697;-69
2024/04/02 04:20:55;;;;;;;0.73;0.43;;;5.30;99.90;;;;;;2021616;29;20644;-69
2024/04/02 04:21:55;;;;;;;1.00;0.50;;;5.30;99.90;;;;;;2023795;29;20705;-69
2024/04/02 04:22:56;;;;;;;0.63;0.50;;;5.20;99.90;;;;;;2030377;29;20304;-69
2024/04/02 04:23:57;;;;;;;0.50;0.50;;;5.20;99.90;;;;;;2031797;29;20217;-69
2024/04/02 04:25:03;;;;;;;1.17;0.50;;;5.20;99.90;;;;;;2029702;29;20229;-69
2024/04/02 04:26:06;;;;;;;0.50;0.50;;;5.20;99.90;;;;;;2025528;29;20217;-69
2024/04/02 04:27:06;;;;;;;1.02;0.70;;;5.20;99.90;;;;;;2026455;29;20270;-70
2024/04/02 04:28:07;;;;;;;0.63;0.50;;;5.10;99.90;;;;;;2030592;29;20328;-69
2024/04/02 04:29:07;;;;;;;1.00;0.60;;;5.10;99.90;;;;;;2026307;29;20189;-69
2024/04/02 04:30:09;;;;;;;0.80;0.60;;;5.10;99.90;;;;;;2024955;29;20610;-69
2024/04/02 04:31:10;;;;;;;0.70;0.50;;;5.10;99.90;;;;;;2030054;29;20189;-69
2024/04/02 04:32:12;;;;;;;0.97;0.60;;;5.10;99.90;;;;;;2030363;29;20185;-70
2024/04/02 04:33:13;;;;;;;1.73;0.50;;;5.10;99.90;;;;;;2030412;29;20188;-70
2024/04/02 04:34:14;;;;;;;1.85;0.50;;;5.10;99.90;;;;;;2029623;29;20237;-70
2024/04/02 04:35:15;;;;;;;2.00;0.63;;;5.20;99.90;;;;;;2026342;29;20306;-69
2024/04/02 04:36:15;;;;;;;1.57;0.60;;;5.10;99.90;;;;;;2030114;29;20237;-69
2024/04/02 04:37:16;;;;;;;1.30;0.70;;;5.10;99.90;;;;;;2030399;29;20224;-68
2024/04/02 04:38:17;;;;;;;1.77;0.53;;;5.00;99.90;;;;;;2030375;29;20256;-68
2024/04/02 04:39:18;;;;;;;2.40;2.00;;;5.10;99.90;;;;;;2030018;29;20208;-69
2024/04/02 04:40:18;;;;;;;6.67;0.80;;;5.00;99.90;;;;;;2029623;29;20273;-69
2024/04/02 04:41:19;;;;;;;1.43;0.77;;;5.00;99.90;;;;;;2030298;29;20284;-69
2024/04/02 04:42:19;;;;;;;0.80;0.80;;;5.00;99.90;;;;;;2029639;29;20192;-68
2024/04/02 04:43:20;;;;;;;1.03;0.60;;;5.00;99.90;;;;;;2029372;29;20236;-69
2024/04/02 04:44:21;;;;;;;0.80;0.67;;;5.00;99.90;;;;;;2030890;29;20292;-69
2024/04/02 04:45:21;;;;;;;1.33;0.70;;;5.00;99.90;;;;;;2028577;29;20233;-69
2024/04/02 04:46:22;;;;;;;0.40;0.40;;;5.00;99.90;;;;;;2029723;29;20377;-69
2024/04/02 04:47:23;;;;;;;1.87;1.60;;;4.90;99.90;;;;;;2030094;29;20230;-69
2024/04/02 04:48:23;;;;;;;0.73;0.70;;;4.90;99.90;;;;;;2029946;29;20240;-69
2024/04/02 04:49:24;;;;;;;0.40;0.40;;;4.90;99.90;;;;;;2029734;29;20232;-69
2024/04/02 04:50:25;;;;;;;3.00;1.13;;;4.90;99.90;;;;;;2029135;29;20268;-69
2024/04/02 04:51:26;;;;;;;1.47;1.37;;;5.00;99.90;;;;;;2029267;29;20241;-70
2024/04/02 04:52:26;;;;;;;1.40;0.80;;;5.00;99.90;;;;;;2030192;29;20716;-69
2024/04/02 04:53:28;;;;;;;3.10;0.60;;;5.00;99.90;;;;;;2029990;29;20601;-69
2024/04/02 04:54:28;;;;;;;2.88;0.90;;;4.90;99.90;;;;;;2029552;29;20233;-69
2024/04/02 04:55:31;;;;;;;0.40;0.40;;;4.90;99.90;;;;;;2029778;29;20323;-69
2024/04/02 04:56:32;;;;;;;1.05;0.90;;;4.80;99.90;;;;;;2034827;29;20235;-69
2024/04/02 04:57:32;;;;;;;1.40;0.70;;;4.80;99.90;;;;;;2037820;29;20224;-69
2024/04/02 04:58:34;;;;;;;1.23;0.90;;;4.80;99.90;;;;;;2030111;29;20354;-69
2024/04/02 04:59:35;;;;;;;1.45;1.00;;;4.80;99.90;;;;;;2029185;29;20243;-69
2024/04/02 05:00:35;;;;;;;0.43;0.43;;;4.80;99.90;;;;;;2021173;29;20229;-70
2024/04/02 05:01:36;;;;;;;0.77;0.40;;;4.80;99.90;;;;;;2022210;29;20694;-69
2024/04/02 05:02:36;;;;;;;2.10;0.50;;;4.80;99.90;;;;;;2029937;29;20694;-69
2024/04/02 05:03:37;;;;;;;0.47;0.40;;;4.70;99.90;;;;;;2031412;29;20228;-69
2024/04/02 05:04:37;;;;;;;0.33;0.33;;;4.60;99.90;;;;;;2030338;29;20277;-68
2024/04/02 05:05:38;;;;;;;0.33;0.33;;;4.60;99.90;;;;;;2029773;29;20256;-69
2024/04/02 05:06:42;;;;;;;0.77;0.77;;;4.60;99.90;;;;;;2030337;29;20228;-69
2024/04/02 05:07:56;;;;;;;0.43;0.30;;;4.50;99.90;;;;;;2029864;29;20236;-69
2024/04/02 05:08:56;;;;;;;0.32;0.32;;;4.50;99.90;;;;;;2027681;29;20228;-69
2024/04/02 05:09:57;;;;;;;0.70;0.50;;;4.40;99.90;;;;;;2031221;29;20311;-69
2024/04/02 05:10:57;;;;;;;0.63;0.50;;;4.50;99.90;;;;;;2029754;29;20231;-69
2024/04/02 05:11:58;;;;;;;0.50;0.50;;;4.50;99.90;;;;;;2029608;29;20253;-69
2024/04/02 05:12:58;;;;;;;1.03;0.50;;;4.40;99.90;;;;;;2029894;29;20275;-68
2024/04/02 05:13:59;;;;;;;1.60;0.60;;;4.40;99.90;;;;;;2031333;29;20225;-69
2024/04/02 05:14:59;;;;;;;0.30;0.30;;;4.30;99.90;;;;;;2030319;29;20319;-68
2024/04/02 05:16:01;;;;;;;0.40;0.40;;;4.40;99.90;;;;;;2028482;29;20358;-68
2024/04/02 05:17:02;;;;;;;0.57;0.40;;;4.40;99.90;;;;;;2024116;29;20625;-68
2024/04/02 05:18:03;;;;;;;3.27;0.70;;;4.40;99.90;;;;;;2031500;29;20186;-68
2024/04/02 05:19:04;;;;;;;1.70;0.40;;;4.40;99.90;;;;;;2030014;29;20662;-69
2024/04/02 05:20:04;;;;;;;0.47;0.43;;;4.40;99.90;;;;;;2029507;29;20186;-68
2024/04/02 05:21:05;;;;;;;1.33;0.40;;;4.40;99.90;;;;;;2028914;29;20188;-68
2024/04/02 05:22:08;;;;;;;0.50;0.40;;;4.30;99.90;;;;;;2029870;29;20177;-68